createdAt,value
2022-11-28T00:01:27.425Z,11.32
2022-11-28T00:04:17.640Z,10.40
2022-11-28T00:07:08.119Z,9.73
2022-11-28T00:09:58.487Z,13.32
2022-11-28T00:12:48.479Z,10.48
2022-11-28T00:15:38.713Z,12.52
2022-11-28T00:18:29.625Z,11.68
2022-11-28T00:21:20.876Z,11.50
2022-11-28T00:24:10.830Z,10.85
2022-11-28T00:27:00.729Z,12.82
2022-11-28T00:29:50.717Z,11.32
2022-11-28T00:32:40.627Z,14.43
2022-11-28T00:35:30.652Z,14.38
2022-11-28T00:38:20.530Z,11.90
2022-11-28T00:41:14.010Z,11.98
2022-11-28T00:44:04.142Z,12.30
2022-11-28T00:46:53.978Z,13.32
2022-11-28T00:49:43.963Z,12.10
2022-11-28T00:52:34.300Z,12.95
2022-11-28T00:55:24.180Z,13.48
2022-11-28T00:58:14.059Z,10.52
2022-11-28T01:01:14.440Z,13.27
2022-11-28T01:04:06.774Z,10.57
2022-11-28T01:06:57.699Z,12.30
2022-11-28T01:09:47.781Z,15.68
2022-11-28T01:12:37.965Z,11.75
2022-11-28T01:15:28.212Z,11.13
2022-11-28T01:18:18.327Z,13.98
2022-11-28T01:21:08.461Z,13.93
2022-11-28T01:23:58.782Z,12.52
2022-11-28T01:26:49.112Z,12.10
2022-11-28T01:29:38.806Z,12.57
2022-11-28T01:32:28.688Z,14.15
2022-11-28T01:35:18.935Z,11.48
2022-11-28T01:38:09.058Z,16.92
2022-11-28T01:40:59.316Z,13.15
2022-11-28T01:43:59.198Z,11.27
2022-11-28T01:46:49.014Z,10.27
2022-11-28T01:49:39.556Z,11.77
2022-11-28T01:52:29.784Z,12.68
2022-11-28T01:55:23.842Z,14.80
2022-11-28T01:58:14.565Z,13.02
2022-11-28T02:01:05.407Z,11.23
2022-11-28T02:03:57.905Z,15.75
2022-11-28T02:06:47.865Z,16.83
2022-11-28T02:09:39.010Z,12.48
2022-11-28T02:12:50.463Z,14.77
2022-11-28T02:16:09.142Z,13.57
2022-11-28T02:19:20.739Z,12.13
2022-11-28T02:22:25.285Z,11.23
2022-11-28T02:25:26.823Z,19.33
2022-11-28T02:28:38.267Z,10.65
2022-11-28T02:32:07.295Z,13.68
2022-11-28T02:35:18.541Z,11.05
2022-11-28T02:38:40.297Z,10.07
2022-11-28T02:41:51.454Z,10.40
2022-11-28T02:44:57.550Z,11.70
2022-11-28T02:47:54.504Z,11.25
2022-11-28T02:50:54.375Z,11.82
2022-11-28T02:53:45.800Z,11.55
2022-11-28T02:56:36.305Z,13.88
2022-11-28T02:59:38.183Z,12.73
2022-11-28T03:02:30.902Z,12.65
2022-11-28T03:05:28.620Z,12.23
2022-11-28T03:08:58.670Z,12.23
2022-11-28T03:12:24.751Z,12.98
2022-11-28T03:15:20.024Z,10.15
2022-11-28T03:18:21.670Z,11.50
2022-11-28T03:21:24.279Z,11.85
2022-11-28T03:24:32.910Z,11.07
2022-11-28T03:27:34.939Z,12.95
2022-11-28T03:30:36.570Z,11.38
2022-11-28T03:33:32.041Z,11.93
2022-11-28T03:36:27.420Z,12.18
2022-11-28T03:39:26.368Z,13.32
2022-11-28T03:42:22.419Z,12.55
2022-11-28T03:45:17.588Z,11.30
2022-11-28T03:48:20.523Z,12.77
2022-11-28T03:51:21.943Z,10.98
2022-11-28T03:54:28.811Z,11.25
2022-11-28T03:57:31.576Z,14.02
2022-11-28T04:00:22.283Z,10.32
2022-11-28T04:03:21.227Z,10.90
2022-11-28T04:06:34.454Z,11.93
2022-11-28T04:09:39.772Z,12.13
2022-11-28T04:12:48.001Z,12.55
2022-11-28T04:15:57.203Z,12.15
2022-11-28T04:19:05.986Z,10.88
2022-11-28T04:22:03.274Z,11.50
2022-11-28T04:24:57.834Z,11.45
2022-11-28T04:27:53.148Z,12.23
2022-11-28T04:30:46.491Z,12.40
2022-11-28T04:33:42.166Z,11.82
2022-11-28T04:36:36.711Z,10.73
2022-11-28T04:39:28.514Z,11.57
2022-11-28T04:42:23.391Z,11.45
2022-11-28T04:45:22.421Z,10.80
2022-11-28T04:48:12.577Z,12.55
2022-11-28T04:51:16.805Z,9.65
2022-11-28T04:54:15.107Z,12.38
2022-11-28T04:57:27.193Z,12.15
2022-11-28T05:00:20.078Z,13.07
2022-11-28T05:03:10.881Z,11.63
2022-11-28T05:06:01.989Z,11.38
2022-11-28T05:08:51.915Z,12.50
2022-11-28T05:11:42.004Z,10.63
2022-11-28T05:14:32.117Z,9.82
2022-11-28T05:17:22.332Z,13.43
2022-11-28T05:20:13.408Z,10.63
2022-11-28T05:23:03.606Z,10.57
2022-11-28T05:25:53.752Z,15.10
2022-11-28T05:28:45.533Z,26.00
2022-11-28T05:31:37.412Z,19.27
2022-11-28T05:34:27.465Z,17.20
2022-11-28T05:37:17.450Z,13.23
2022-11-28T05:40:07.953Z,10.57
2022-11-28T05:42:58.075Z,13.00
2022-11-28T05:45:47.965Z,12.73
2022-11-28T05:48:38.147Z,13.80
2022-11-28T05:51:28.286Z,18.05
2022-11-28T05:54:18.178Z,13.25
2022-11-28T05:57:08.252Z,16.48
2022-11-28T05:59:58.471Z,13.18
2022-11-28T06:02:48.315Z,20.42
2022-11-28T06:05:43.213Z,18.60
2022-11-28T06:08:33.613Z,15.30
2022-11-28T06:11:25.933Z,16.35
2022-11-28T06:14:15.853Z,20.05
2022-11-28T06:17:06.230Z,15.70
2022-11-28T06:19:56.234Z,18.25
2022-11-28T06:22:47.048Z,14.82
2022-11-28T06:25:36.986Z,13.30
2022-11-28T06:28:27.384Z,15.68
2022-11-28T06:31:23.111Z,14.02
2022-11-28T06:34:13.660Z,17.23
2022-11-28T06:37:03.882Z,18.85
2022-11-28T06:39:55.222Z,15.82
2022-11-28T06:42:45.387Z,14.15
2022-11-28T06:45:35.396Z,12.05
2022-11-28T06:48:26.123Z,12.88
2022-11-28T06:51:17.055Z,14.68
2022-11-28T06:54:07.086Z,11.82
2022-11-28T06:56:57.287Z,14.50
2022-11-28T06:59:48.493Z,14.23
2022-11-28T07:02:38.508Z,15.02
2022-11-28T07:05:30.941Z,13.93
2022-11-28T07:08:20.841Z,13.85
2022-11-28T07:11:31.732Z,12.18
2022-11-28T07:14:22.129Z,16.27
2022-11-28T07:17:12.342Z,13.75
2022-11-28T07:20:02.448Z,17.27
2022-11-28T07:22:52.391Z,14.45
2022-11-28T07:25:42.502Z,16.80
2022-11-28T07:28:34.623Z,17.05
2022-11-28T07:31:27.739Z,12.25
2022-11-28T07:34:17.914Z,20.63
2022-11-28T07:37:07.983Z,20.25
2022-11-28T07:39:58.103Z,17.58
2022-11-28T07:42:48.816Z,16.95
2022-11-28T07:45:59.462Z,18.52
2022-11-28T07:48:50.253Z,18.20
2022-11-28T07:51:40.778Z,22.30
2022-11-28T07:54:30.740Z,17.83
2022-11-28T07:57:20.682Z,16.25
2022-11-28T08:00:11.284Z,14.57
2022-11-28T08:03:04.271Z,15.65
2022-11-28T08:06:01.719Z,23.38
2022-11-28T08:08:55.411Z,15.35
2022-11-28T08:11:45.610Z,16.88
2022-11-28T08:14:35.731Z,16.00
2022-11-28T08:17:26.030Z,16.00
2022-11-28T08:20:15.982Z,17.00
2022-11-28T08:23:05.956Z,17.92
2022-11-28T08:25:55.842Z,19.83
2022-11-28T08:28:46.594Z,20.63
2022-11-28T08:31:38.365Z,20.08
2022-11-28T08:34:28.320Z,23.08
2022-11-28T08:37:18.319Z,17.60
2022-11-28T08:40:08.725Z,18.83
2022-11-28T08:42:58.985Z,16.80
2022-11-28T08:45:49.056Z,13.55
2022-11-28T08:48:40.015Z,21.40
2022-11-28T08:51:30.198Z,16.58
2022-11-28T08:54:20.891Z,15.63
2022-11-28T08:57:10.866Z,15.68
2022-11-28T09:00:00.698Z,20.00
2022-11-28T09:02:50.694Z,16.13
2022-11-28T09:05:41.064Z,21.65
2022-11-28T09:08:30.952Z,19.63
2022-11-28T09:11:22.699Z,16.75
2022-11-28T09:14:12.741Z,16.77
2022-11-28T09:17:03.020Z,21.55
2022-11-28T09:19:53.404Z,22.40
2022-11-28T09:22:43.659Z,23.98
2022-11-28T09:25:40.015Z,19.75
2022-11-28T09:28:30.184Z,19.85
2022-11-28T09:31:20.486Z,20.13
2022-11-28T09:34:11.016Z,25.50
2022-11-28T09:37:04.872Z,22.60
2022-11-28T09:40:12.734Z,18.23
2022-11-28T09:43:11.995Z,18.38
2022-11-28T09:46:06.078Z,17.30
2022-11-28T09:51:55.614Z,24.33
2022-11-28T09:55:00.768Z,18.55
2022-11-28T09:57:53.495Z,20.42
2022-11-28T10:00:55.767Z,18.63
2022-11-28T10:03:52.178Z,20.77
2022-11-28T10:06:58.541Z,20.17
2022-11-28T10:10:13.692Z,18.17
2022-11-28T10:13:20.597Z,19.98
2022-11-28T10:16:42.993Z,18.05
2022-11-28T10:19:56.973Z,16.85
2022-11-28T10:22:53.139Z,15.13
2022-11-28T10:25:50.581Z,27.05
2022-11-28T10:28:43.854Z,30.92
2022-11-28T10:31:44.144Z,15.77
2022-11-28T10:34:43.589Z,15.18
2022-11-28T10:37:37.099Z,14.13
2022-11-28T10:40:38.685Z,22.15
2022-11-28T10:43:57.474Z,16.05
2022-11-28T10:47:14.873Z,17.50
2022-11-28T10:50:32.481Z,20.27
2022-11-28T10:53:55.051Z,17.25
2022-11-28T10:57:03.213Z,11.93
2022-11-28T11:00:13.254Z,13.80
2022-11-28T11:03:05.956Z,11.07
2022-11-28T11:05:55.907Z,15.25
2022-11-28T11:08:48.028Z,14.50
2022-11-28T11:11:50.443Z,15.30
2022-11-28T11:14:40.650Z,12.60
2022-11-28T11:17:41.160Z,15.38
2022-11-28T11:20:38.556Z,14.27
2022-11-28T11:23:32.818Z,17.10
2022-11-28T11:26:36.378Z,19.65
2022-11-28T11:29:31.900Z,13.57
2022-11-28T11:32:27.848Z,15.40
2022-11-28T11:35:23.265Z,16.48
2022-11-28T11:38:22.402Z,16.40
2022-11-28T11:41:29.756Z,13.27
2022-11-28T11:44:20.556Z,13.85
2022-11-28T11:47:11.001Z,15.48
2022-11-28T11:50:05.854Z,14.68
2022-11-28T11:53:14.032Z,17.23
2022-11-28T11:56:04.366Z,17.77
2022-11-28T11:58:58.406Z,16.52
2022-11-28T12:01:52.731Z,15.10
2022-11-28T12:04:53.885Z,16.73
2022-11-28T12:08:01.049Z,18.80
2022-11-28T12:11:33.633Z,13.98
2022-11-28T12:14:38.228Z,18.95
2022-11-28T12:17:58.354Z,14.90
2022-11-28T12:20:53.973Z,17.58
2022-11-28T12:24:06.297Z,29.75
2022-11-28T12:27:29.282Z,17.27
2022-11-28T12:30:33.424Z,16.48
2022-11-28T12:33:37.292Z,14.40
2022-11-28T12:39:56.175Z,26.92
2022-11-28T12:43:21.963Z,27.08
2022-11-28T12:46:30.443Z,19.67
2022-11-28T12:49:34.140Z,18.73
2022-11-28T12:52:43.301Z,16.65
2022-11-28T12:55:48.993Z,16.95
2022-11-28T12:58:45.988Z,16.85
2022-11-28T13:02:18.917Z,18.73
2022-11-28T13:05:27.217Z,16.60
2022-11-28T13:08:48.535Z,19.48
2022-11-28T13:11:57.488Z,14.75
2022-11-28T13:15:00.445Z,14.98
2022-11-28T13:17:56.822Z,16.48
2022-11-28T13:21:02.736Z,16.83
2022-11-28T13:24:32.904Z,16.27
2022-11-28T13:27:37.488Z,17.45
2022-11-28T13:30:32.496Z,15.35
2022-11-28T13:33:49.169Z,14.48
2022-11-28T13:40:18.281Z,13.63
2022-11-28T13:43:46.429Z,16.85
2022-11-28T13:46:37.035Z,13.13
2022-11-28T13:49:29.503Z,15.52
2022-11-28T13:52:20.073Z,17.08
2022-11-28T13:55:35.888Z,12.00
2022-11-28T13:58:31.396Z,14.30
2022-11-28T14:01:24.155Z,19.90
2022-11-28T14:04:17.863Z,17.13
2022-11-28T14:07:07.913Z,15.25
2022-11-28T14:10:05.226Z,16.65
2022-11-28T14:13:26.608Z,17.23
2022-11-28T14:16:38.088Z,18.30
2022-11-28T14:19:28.366Z,17.40
2022-11-28T14:22:43.993Z,16.48
2022-11-28T14:25:41.388Z,15.60
2022-11-28T14:28:38.171Z,16.50
2022-11-28T14:31:38.313Z,15.88
2022-11-28T14:34:44.394Z,20.67
2022-11-28T14:37:52.055Z,16.13
2022-11-28T14:41:05.606Z,18.77
2022-11-28T14:44:34.316Z,19.55
2022-11-28T14:47:26.552Z,17.10
2022-11-28T14:50:18.094Z,15.13
2022-11-28T14:53:34.038Z,14.98
2022-11-28T14:56:27.869Z,16.02
2022-11-28T14:59:21.246Z,17.85
2022-11-28T15:02:11.492Z,14.32
2022-11-28T15:05:30.841Z,17.45
2022-11-28T15:08:46.982Z,15.02
2022-11-28T15:12:08.436Z,21.65
2022-11-28T15:15:01.706Z,14.15
2022-11-28T15:17:54.575Z,13.85
2022-11-28T15:20:53.766Z,14.00
2022-11-28T15:23:43.783Z,22.25
2022-11-28T15:26:33.901Z,14.85
2022-11-28T15:29:26.839Z,16.67
2022-11-28T15:32:16.843Z,14.25
2022-11-28T15:35:12.532Z,13.40
2022-11-28T15:38:03.293Z,14.05
2022-11-28T15:40:55.651Z,21.33
2022-11-28T15:43:46.371Z,13.52
2022-11-28T15:46:37.190Z,15.05
2022-11-28T15:49:27.715Z,13.98
2022-11-28T15:52:20.760Z,13.52
2022-11-28T15:55:17.717Z,20.73
2022-11-28T15:58:19.231Z,16.67
2022-11-28T16:01:16.933Z,14.27
2022-11-28T16:04:14.177Z,16.42
2022-11-28T16:07:04.239Z,18.60
2022-11-28T16:10:05.692Z,16.17
2022-11-28T16:13:02.153Z,15.38
2022-11-28T16:15:55.928Z,14.15
2022-11-28T16:18:56.117Z,16.73
2022-11-28T16:22:06.800Z,18.52
2022-11-28T16:24:57.069Z,15.13
2022-11-28T16:27:48.906Z,14.70
2022-11-28T16:30:43.511Z,19.50
2022-11-28T16:33:47.955Z,14.40
2022-11-28T16:36:38.862Z,16.50
2022-11-28T16:39:32.520Z,15.40
2022-11-28T16:42:25.301Z,20.65
2022-11-28T16:45:18.845Z,19.55
2022-11-28T16:48:14.826Z,21.23
2022-11-28T16:51:11.429Z,18.65
2022-11-28T16:54:22.156Z,19.60
2022-11-28T16:57:16.386Z,17.50
2022-11-28T17:02:56.706Z,14.77
2022-11-28T17:05:46.767Z,17.35
2022-11-28T17:08:36.704Z,16.83
2022-11-28T17:11:32.572Z,21.15
2022-11-28T17:14:22.925Z,16.95
2022-11-28T17:17:17.524Z,20.15
2022-11-28T17:20:08.358Z,19.75
2022-11-28T17:22:59.028Z,18.73
2022-11-28T17:25:48.901Z,20.55
2022-11-28T17:28:39.854Z,24.10
2022-11-28T17:31:29.940Z,22.92
2022-11-28T17:34:25.205Z,21.27
2022-11-28T17:37:16.469Z,20.48
2022-11-28T17:40:25.655Z,19.60
2022-11-28T17:43:21.915Z,28.85
2022-11-28T17:46:12.510Z,20.85
2022-11-28T17:49:28.899Z,22.48
2022-11-28T17:52:20.042Z,19.70
2022-11-28T17:55:10.273Z,20.90
2022-11-28T17:58:00.733Z,23.48
2022-11-28T18:00:54.934Z,19.55
2022-11-28T18:03:47.437Z,23.48
2022-11-28T18:06:37.959Z,21.45
2022-11-28T18:09:32.080Z,23.25
2022-11-28T18:12:22.093Z,24.77
2022-11-28T18:15:12.484Z,29.45
2022-11-28T18:18:04.373Z,26.33
2022-11-28T18:20:55.544Z,26.58
2022-11-28T18:23:51.998Z,29.42
2022-11-28T18:26:42.004Z,25.05
2022-11-28T18:29:33.535Z,25.30
2022-11-28T18:32:23.630Z,25.80
2022-11-28T18:35:14.308Z,20.48
2022-11-28T18:38:06.169Z,20.75
2022-11-28T18:40:56.466Z,19.75
2022-11-28T18:43:48.211Z,20.70
2022-11-28T18:46:39.229Z,19.75
2022-11-28T18:49:29.510Z,20.77
2022-11-28T18:52:19.596Z,25.20
2022-11-28T18:55:09.820Z,22.95
2022-11-28T18:57:59.822Z,25.48
2022-11-28T19:00:50.102Z,23.50
2022-11-28T19:03:41.698Z,33.17
2022-11-28T19:06:33.940Z,27.05
2022-11-28T19:09:23.902Z,28.98
2022-11-28T19:12:15.607Z,25.20
2022-11-28T19:15:06.249Z,26.77
2022-11-28T19:17:56.422Z,28.25
2022-11-28T19:20:46.780Z,27.25
2022-11-28T19:23:38.623Z,38.20
2022-11-28T19:26:34.061Z,24.88
2022-11-28T19:29:24.254Z,25.77
2022-11-28T19:32:14.594Z,26.95
2022-11-28T19:35:06.012Z,25.23
2022-11-28T19:37:56.498Z,24.50
2022-11-28T19:40:46.734Z,23.65
2022-11-28T19:43:37.040Z,26.42
2022-11-28T19:46:31.882Z,23.95
2022-11-28T19:49:26.548Z,31.55
2022-11-28T19:52:17.013Z,33.22
2022-11-28T19:55:08.017Z,27.15
2022-11-28T19:57:58.487Z,23.77
2022-11-28T20:00:49.657Z,26.00
2022-11-28T20:03:43.759Z,24.25
2022-11-28T20:06:36.014Z,27.63
2022-11-28T20:09:26.969Z,26.75
2022-11-28T20:12:18.224Z,27.45
2022-11-28T20:15:13.769Z,30.77
2022-11-28T20:18:07.595Z,26.55
2022-11-28T20:21:19.314Z,34.80
2022-11-28T20:24:10.741Z,40.53
2022-11-28T20:27:02.243Z,42.63
2022-11-28T20:29:53.400Z,37.35
2022-11-28T20:32:43.654Z,30.48
2022-11-28T20:35:34.601Z,29.33
2022-11-28T20:38:24.980Z,31.90
2022-11-28T20:41:17.218Z,31.02
2022-11-28T20:44:07.817Z,34.97
2022-11-28T20:46:58.141Z,40.45
2022-11-28T20:49:48.309Z,37.05
2022-11-28T20:52:38.364Z,36.30
2022-11-28T20:55:28.575Z,37.20
2022-11-28T20:58:18.328Z,41.88
2022-11-28T21:01:12.830Z,39.88
2022-11-28T21:04:05.411Z,34.58
2022-11-28T21:06:55.832Z,33.78
2022-11-28T21:09:45.971Z,27.92
2022-11-28T21:12:36.207Z,32.08
2022-11-28T21:15:26.528Z,29.35
2022-11-28T21:18:17.165Z,26.35
2022-11-28T21:21:12.843Z,26.83
2022-11-28T21:24:08.310Z,31.52
2022-11-28T21:26:58.569Z,25.55
2022-11-28T21:29:54.861Z,26.60
2022-11-28T21:32:45.029Z,28.40
2022-11-28T21:35:35.769Z,30.90
2022-11-28T21:38:25.707Z,27.35
2022-11-28T21:41:15.693Z,28.85
2022-11-28T21:44:05.795Z,28.17
2022-11-28T21:46:56.549Z,32.50
2022-11-28T21:49:48.041Z,28.58
2022-11-28T21:52:38.612Z,28.45
2022-11-28T21:55:28.935Z,32.47
2022-11-28T21:58:25.138Z,27.45
2022-11-28T22:01:16.617Z,25.70
2022-11-28T22:04:06.945Z,32.55
2022-11-28T22:06:57.498Z,26.27
2022-11-28T22:09:48.020Z,26.02
2022-11-28T22:12:39.005Z,31.27
2022-11-28T22:15:29.654Z,23.35
2022-11-28T22:18:20.243Z,22.50
2022-11-28T22:21:43.267Z,29.15
2022-11-28T22:24:22.483Z,27.38
2022-11-28T22:27:12.932Z,29.13
2022-11-28T22:30:04.373Z,27.33
2022-11-28T22:32:54.654Z,28.80
2022-11-28T22:35:45.543Z,27.70
2022-11-28T22:38:37.611Z,25.83
2022-11-28T22:41:29.782Z,28.42
2022-11-28T22:44:23.786Z,25.15
2022-11-28T22:47:14.280Z,27.13
2022-11-28T22:50:05.400Z,26.08
2022-11-28T22:52:56.086Z,29.75
2022-11-28T22:55:46.084Z,28.98
2022-11-28T22:58:42.431Z,29.98
2022-11-28T23:01:34.415Z,35.65
2022-11-28T23:04:24.557Z,30.92
2022-11-28T23:07:15.907Z,30.25
2022-11-28T23:10:07.756Z,28.73
2022-11-28T23:12:57.931Z,25.83
2022-11-28T23:15:52.633Z,27.33
2022-11-28T23:18:44.834Z,30.85
2022-11-28T23:21:38.108Z,31.15
2022-11-28T23:24:28.696Z,31.25
2022-11-28T23:27:19.365Z,30.67
2022-11-28T23:30:10.094Z,27.67
2022-11-28T23:33:00.754Z,32.00
2022-11-28T23:35:51.025Z,34.50
2022-11-28T23:38:41.304Z,31.02
2022-11-28T23:41:31.883Z,33.90
2022-11-28T23:44:22.187Z,33.00
2022-11-28T23:47:12.520Z,29.30
2022-11-28T23:50:02.653Z,30.52
2022-11-28T23:52:53.354Z,29.80
2022-11-28T23:55:44.023Z,30.23
2022-11-28T23:58:35.079Z,34.22
